Time;durP1;ratioP1;P1;durP2;ratioP2;P2;SDS_P1;SDS_P2;PMS_P1;PMS_P2;Temp;Humidity;BMP_temperature;BMP_pressure;BME280_temperature;BME280_humidity;BME280_pressure;Samples;Min_cycle;Max_cycle;Signal;HPM_P1;HPM_P2
2023/05/02 00:00:26;;;;;;;4.95;4.35;;;;;;;;;;5115305;28;20058;-81
2023/05/02 00:02:52;;;;;;;7.35;5.07;;;;;;;;;;5114382;28;20027;-81
2023/05/02 00:05:17;;;;;;;7.72;4.63;;;;;;;;;;5114979;28;20030;-81
2023/05/02 00:07:43;;;;;;;9.60;4.63;;;;;;;;;;5114451;28;20080;-81
2023/05/02 00:10:09;;;;;;;5.85;4.18;;;;;;;;;;5113561;28;20169;-80
2023/05/02 00:12:34;;;;;;;8.35;4.93;;;;;;;;;;5114815;28;20026;-80
2023/05/02 00:15:00;;;;;;;9.75;4.95;;;;;;;;;;5112763;28;20039;-81
2023/05/02 00:17:25;;;;;;;7.82;5.18;;;;;;;;;;5112619;28;20391;-80
2023/05/02 00:19:51;;;;;;;8.38;5.25;;;;;;;;;;5114650;28;20028;-80
2023/05/02 00:22:17;;;;;;;6.18;4.78;;;;;;;;;;5112929;28;20057;-80
2023/05/02 00:24:42;;;;;;;6.32;4.20;;;;;;;;;;5113329;28;20480;-80
2023/05/02 00:27:08;;;;;;;6.75;4.50;;;;;;;;;;5111781;28;20073;-80
2023/05/02 00:29:33;;;;;;;6.88;4.63;;;;;;;;;;5114740;28;20028;-82
2023/05/02 00:31:59;;;;;;;7.03;4.75;;;;;;;;;;5112800;28;20118;-81
2023/05/02 00:34:31;;;;;;;7.05;4.57;;;;;;;;;;5112322;28;20027;-81
2023/05/02 00:36:57;;;;;;;6.45;4.80;;;;;;;;;;5114094;28;20038;-81
2023/05/02 00:39:23;;;;;;;8.32;4.85;;;;;;;;;;5113929;28;20047;-81
2023/05/02 00:41:54;;;;;;;11.20;4.88;;;;;;;;;;5112491;28;20510;-81
2023/05/02 00:44:21;;;;;;;6.95;4.50;;;;;;;;;;5114676;28;20023;-81
2023/05/02 00:46:46;;;;;;;7.13;4.93;;;;;;;;;;5111814;28;20100;-80
2023/05/02 00:49:12;;;;;;;12.45;6.07;;;;;;;;;;5112719;28;20015;-81
2023/05/02 00:51:39;;;;;;;6.65;4.97;;;;;;;;;;5112337;28;20368;-80
2023/05/02 00:54:05;;;;;;;6.95;5.00;;;;;;;;;;5113296;28;20019;-80
2023/05/02 00:56:30;;;;;;;7.38;4.78;;;;;;;;;;5112343;28;20023;-81
2023/05/02 00:58:57;;;;;;;9.10;5.50;;;;;;;;;;5112173;28;20384;-81
2023/05/02 01:01:33;;;;;;;8.63;5.15;;;;;;;;;;5112074;28;20027;-80
2023/05/02 01:03:59;;;;;;;6.55;5.00;;;;;;;;;;5111907;28;20473;-76
2023/05/02 01:06:56;;;;;;;9.02;5.57;;;;;;;;;;5111380;28;20097;-78
2023/05/02 01:09:41;;;;;;;6.95;5.25;;;;;;;;;;5110902;28;20027;-79
2023/05/02 01:12:22;;;;;;;7.78;5.32;;;;;;;;;;5113191;28;20028;-79
2023/05/02 01:14:55;;;;;;;12.52;6.05;;;;;;;;;;5110859;28;20024;-78
2023/05/02 01:17:26;;;;;;;9.15;5.40;;;;;;;;;;5110870;28;20391;-78
2023/05/02 01:20:02;;;;;;;10.15;5.53;;;;;;;;;;5112580;28;20034;-79
2023/05/02 01:22:31;;;;;;;7.70;5.38;;;;;;;;;;5110702;28;20042;-78
2023/05/02 01:25:08;;;;;;;6.95;5.30;;;;;;;;;;5110934;28;20038;-80
2023/05/02 01:27:48;;;;;;;9.63;5.70;;;;;;;;;;5112332;28;20062;-78
2023/05/02 01:30:17;;;;;;;8.60;5.90;;;;;;;;;;5110378;28;20059;-77
2023/05/02 01:32:46;;;;;;;7.18;5.50;;;;;;;;;;5112390;28;20023;-78
2023/05/02 01:35:14;;;;;;;9.40;6.07;;;;;;;;;;5110590;28;20050;-78
2023/05/02 01:37:42;;;;;;;7.03;5.97;;;;;;;;;;5110189;28;20023;-77
2023/05/02 01:40:09;;;;;;;7.03;6.25;;;;;;;;;;5111945;28;20098;-79
2023/05/02 01:42:37;;;;;;;9.15;6.03;;;;;;;;;;5110598;28;20027;-77
2023/05/02 01:45:04;;;;;;;7.57;5.85;;;;;;;;;;5111990;28;20027;-76
2023/05/02 01:47:34;;;;;;;10.65;6.65;;;;;;;;;;5111527;28;20047;-78
2023/05/02 01:50:04;;;;;;;9.70;7.25;;;;;;;;;;5110154;28;20094;-78
2023/05/02 01:52:30;;;;;;;8.60;6.10;;;;;;;;;;5111129;28;20134;-79
2023/05/02 01:54:59;;;;;;;8.68;6.05;;;;;;;;;;5111164;28;20486;-79
2023/05/02 01:57:25;;;;;;;9.27;6.22;;;;;;;;;;5111579;28;20395;-78
2023/05/02 01:59:51;;;;;;;10.70;6.60;;;;;;;;;;5110229;28;20035;-79
2023/05/02 02:02:18;;;;;;;12.45;7.85;;;;;;;;;;5109894;28;20537;-78
2023/05/02 02:04:46;;;;;;;11.38;6.63;;;;;;;;;;5110207;28;20387;-78
2023/05/02 02:07:13;;;;;;;8.80;6.57;;;;;;;;;;5111614;28;20019;-78
2023/05/02 02:09:39;;;;;;;9.85;6.97;;;;;;;;;;5111821;28;20024;-77
2023/05/02 02:12:11;;;;;;;9.82;7.00;;;;;;;;;;5110171;28;20027;-78
2023/05/02 02:14:40;;;;;;;9.90;7.07;;;;;;;;;;5111553;28;20031;-78
2023/05/02 02:17:24;;;;;;;9.77;7.50;;;;;;;;;;5112016;28;20035;-80
2023/05/02 02:19:53;;;;;;;11.35;7.40;;;;;;;;;;5111516;28;20531;-78
2023/05/02 02:22:19;;;;;;;10.55;6.45;;;;;;;;;;5110451;28;20042;-79
2023/05/02 02:24:46;;;;;;;12.85;7.70;;;;;;;;;;5111724;28;20110;-78
2023/05/02 02:27:12;;;;;;;10.77;7.43;;;;;;;;;;5110050;28;20028;-77
2023/05/02 02:29:37;;;;;;;9.45;7.82;;;;;;;;;;5111880;28;20371;-78
2023/05/02 02:32:03;;;;;;;10.57;6.82;;;;;;;;;;5112278;28;20023;-79
2023/05/02 02:34:28;;;;;;;8.90;6.95;;;;;;;;;;5110824;28;20115;-78
2023/05/02 02:37:00;;;;;;;15.35;7.30;;;;;;;;;;5110445;28;20024;-78
2023/05/02 02:39:31;;;;;;;;;;;;;;;;;;5111866;28;20429;-78
2023/05/02 02:42:06;;;;;;;10.82;7.28;;;;;;;;;;5111481;28;19908;-78
2023/05/02 02:44:57;;;;;;;9.00;7.40;;;;;;;;;;5110938;28;20020;-78
2023/05/02 02:47:31;;;;;;;10.00;7.20;;;;;;;;;;5110968;28;20054;-78
2023/05/02 02:50:21;;;;;;;12.90;8.10;;;;;;;;;;5110459;28;20046;-78
2023/05/02 02:53:01;;;;;;;12.88;7.80;;;;;;;;;;5114918;28;20212;-79
2023/05/02 02:55:46;;;;;;;10.98;7.60;;;;;;;;;;5115710;28;20027;-77
2023/05/02 02:58:28;;;;;;;14.15;7.90;;;;;;;;;;5115293;28;20077;-78
2023/05/02 03:00:54;;;;;;;10.68;7.47;;;;;;;;;;5115174;28;20027;-77
2023/05/02 03:03:27;;;;;;;12.10;7.13;;;;;;;;;;5113388;28;20035;-77
2023/05/02 03:05:55;;;;;;;11.20;7.82;;;;;;;;;;5114970;28;20020;-79
2023/05/02 03:08:21;;;;;;;11.63;7.72;;;;;;;;;;5113517;28;20383;-79
2023/05/02 03:10:47;;;;;;;12.32;7.82;;;;;;;;;;5114970;28;20019;-79
2023/05/02 03:13:12;;;;;;;11.07;7.20;;;;;;;;;;5113040;28;20027;-78
2023/05/02 03:15:50;;;;;;;12.40;7.75;;;;;;;;;;5113727;28;20031;-79
2023/05/02 03:18:15;;;;;;;9.43;7.20;;;;;;;;;;5114697;28;20386;-77
2023/05/02 03:20:41;;;;;;;15.98;7.18;;;;;;;;;;5115423;27;20110;-78
2023/05/02 03:23:06;;;;;;;11.63;7.30;;;;;;;;;;5113898;28;20024;-78
2023/05/02 03:25:32;;;;;;;10.60;7.40;;;;;;;;;;5114749;27;20053;-78
2023/05/02 03:27:57;;;;;;;10.77;8.10;;;;;;;;;;5112957;28;20332;-78
2023/05/02 03:30:23;;;;;;;10.80;6.95;;;;;;;;;;5114313;28;20023;-79
2023/05/02 03:32:49;;;;;;;11.88;7.18;;;;;;;;;;5114209;28;20380;-78
2023/05/02 03:35:15;;;;;;;14.50;7.95;;;;;;;;;;5112738;28;20030;-80
2023/05/02 03:37:40;;;;;;;12.07;7.57;;;;;;;;;;5112978;28;20112;-78
2023/05/02 03:40:06;;;;;;;11.02;7.30;;;;;;;;;;5113325;28;20442;-79
2023/05/02 03:42:40;;;;;;;9.95;7.10;;;;;;;;;;5114386;28;20023;-76
2023/05/02 03:45:06;;;;;;;10.30;7.97;;;;;;;;;;5112669;28;20019;-78
2023/05/02 03:47:32;;;;;;;10.35;7.32;;;;;;;;;;5113947;27;20063;-76
2023/05/02 03:49:58;;;;;;;12.80;8.02;;;;;;;;;;5113874;28;20458;-77
2023/05/02 03:52:24;;;;;;;12.52;8.15;;;;;;;;;;5112549;28;20031;-79
2023/05/02 03:54:49;;;;;;;9.45;7.25;;;;;;;;;;5112532;28;20063;-80
2023/05/02 03:57:15;;;;;;;11.98;7.63;;;;;;;;;;5113660;28;20065;-78
2023/05/02 03:59:41;;;;;;;13.18;7.40;;;;;;;;;;5112674;28;20084;-79
2023/05/02 04:02:07;;;;;;;12.40;7.43;;;;;;;;;;5112332;28;20486;-78
2023/05/02 04:04:33;;;;;;;13.68;7.10;;;;;;;;;;5113992;28;20031;-78
2023/05/02 04:06:59;;;;;;;9.68;6.82;;;;;;;;;;5112657;28;20024;-78
2023/05/02 04:09:24;;;;;;;11.15;7.40;;;;;;;;;;5112206;28;20032;-77
2023/05/02 04:11:51;;;;;;;15.02;7.70;;;;;;;;;;5112463;28;20088;-77
2023/05/02 04:14:17;;;;;;;15.82;7.57;;;;;;;;;;5112440;28;20459;-77
2023/05/02 04:16:50;;;;;;;14.60;8.63;;;;;;;;;;5113742;27;20118;-77
2023/05/02 04:19:17;;;;;;;16.60;11.63;;;;;;;;;;5111997;28;20106;-78
2023/05/02 04:21:43;;;;;;;13.85;6.90;;;;;;;;;;5112565;28;20042;-77
2023/05/02 04:24:08;;;;;;;8.40;6.72;;;;;;;;;;5111917;28;20486;-76
2023/05/02 04:26:34;;;;;;;13.43;7.75;;;;;;;;;;5113126;28;20051;-77
2023/05/02 04:29:00;;;;;;;8.82;7.10;;;;;;;;;;5113294;28;20023;-76
2023/05/02 04:31:26;;;;;;;14.77;8.02;;;;;;;;;;5113058;28;20030;-78
2023/05/02 04:33:51;;;;;;;10.35;7.22;;;;;;;;;;5111984;28;20074;-78
2023/05/02 04:36:18;;;;;;;10.02;7.55;;;;;;;;;;5111860;28;20068;-79
2023/05/02 04:38:44;;;;;;;11.60;7.90;;;;;;;;;;5111818;28;20028;-78
2023/05/02 04:41:12;;;;;;;10.35;7.93;;;;;;;;;;5106044;28;20157;-79
2023/05/02 04:43:37;;;;;;;10.15;7.97;;;;;;;;;;5090381;28;20024;-78
2023/05/02 04:46:03;;;;;;;10.80;8.27;;;;;;;;;;5096303;28;20042;-78
2023/05/02 04:48:28;;;;;;;16.08;12.57;;;;;;;;;;5113067;28;20107;-79
2023/05/02 04:50:54;;;;;;;9.40;7.50;;;;;;;;;;5112802;28;20015;-78
2023/05/02 04:53:22;;;;;;;15.77;8.57;;;;;;;;;;5111267;28;20479;-77
2023/05/02 04:55:48;;;;;;;16.63;8.60;;;;;;;;;;5111536;28;20027;-75
2023/05/02 04:58:14;;;;;;;10.95;7.72;;;;;;;;;;5112561;28;20034;-79
2023/05/02 05:00:40;;;;;;;10.90;7.25;;;;;;;;;;5112622;28;20028;-78
2023/05/02 05:03:05;;;;;;;11.32;8.38;;;;;;;;;;5112540;28;20028;-78
2023/05/02 05:05:31;;;;;;;10.48;8.25;;;;;;;;;;5112381;28;20023;-79
2023/05/02 05:07:57;;;;;;;12.90;8.90;;;;;;;;;;5111488;28;20024;-78
2023/05/02 05:10:22;;;;;;;16.35;8.90;;;;;;;;;;5111077;28;20046;-79
2023/05/02 05:12:49;;;;;;;10.18;7.90;;;;;;;;;;5094128;28;20587;-79
2023/05/02 05:15:15;;;;;;;13.48;7.80;;;;;;;;;;5084163;28;20028;-81
2023/05/02 05:17:41;;;;;;;11.35;7.97;;;;;;;;;;5075780;28;20016;-79
2023/05/02 05:20:09;;;;;;;16.52;8.43;;;;;;;;;;5077715;28;20387;-77
2023/05/02 05:22:38;;;;;;;14.43;8.57;;;;;;;;;;5077278;28;20028;-78
2023/05/02 05:25:04;;;;;;;12.43;7.40;;;;;;;;;;5073480;28;20028;-79
2023/05/02 05:27:30;;;;;;;15.15;8.90;;;;;;;;;;5075670;28;20016;-77
2023/05/02 05:29:56;;;;;;;12.38;7.93;;;;;;;;;;5073615;28;20048;-78
2023/05/02 05:32:21;;;;;;;12.07;8.70;;;;;;;;;;5075553;28;20070;-77
2023/05/02 05:34:51;;;;;;;11.43;8.13;;;;;;;;;;5074727;28;20074;-75
2023/05/02 05:37:17;;;;;;;12.07;7.32;;;;;;;;;;5084192;28;20090;-78
2023/05/02 05:39:43;;;;;;;14.93;8.05;;;;;;;;;;5086420;28;20031;-79
2023/05/02 05:42:08;;;;;;;13.65;8.02;;;;;;;;;;5096548;28;20094;-79
2023/05/02 05:44:35;;;;;;;10.38;7.88;;;;;;;;;;5083264;28;20122;-78
2023/05/02 05:47:01;;;;;;;11.80;7.78;;;;;;;;;;5090919;28;20043;-79
2023/05/02 05:49:26;;;;;;;11.60;8.27;;;;;;;;;;5082816;28;20487;-80
2023/05/02 05:51:52;;;;;;;18.13;8.65;;;;;;;;;;5080343;28;20035;-80
2023/05/02 05:54:17;;;;;;;13.23;8.15;;;;;;;;;;5085360;28;20025;-80
2023/05/02 05:56:43;;;;;;;16.08;9.00;;;;;;;;;;5079609;28;20036;-82
2023/05/02 05:59:09;;;;;;;14.73;8.52;;;;;;;;;;5085298;28;20094;-81
2023/05/02 06:01:35;;;;;;;12.43;7.38;;;;;;;;;;5091689;28;20038;-82
2023/05/02 06:04:01;;;;;;;13.27;7.72;;;;;;;;;;5074761;28;20112;-81
2023/05/02 06:06:28;;;;;;;13.48;8.00;;;;;;;;;;5080786;28;20609;-81
2023/05/02 06:08:53;;;;;;;12.18;8.05;;;;;;;;;;5085289;28;20027;-80
2023/05/02 06:11:19;;;;;;;12.40;7.40;;;;;;;;;;5075939;28;20480;-81
2023/05/02 06:13:45;;;;;;;11.57;7.28;;;;;;;;;;5073039;28;20550;-81
2023/05/02 06:16:11;;;;;;;14.48;8.82;;;;;;;;;;5079813;28;20030;-80
2023/05/02 06:18:36;;;;;;;11.38;7.80;;;;;;;;;;5082045;28;20036;-84
2023/05/02 06:21:05;;;;;;;17.35;8.57;;;;;;;;;;5073314;28;20036;-80
2023/05/02 06:23:31;;;;;;;11.77;8.27;;;;;;;;;;5076352;28;20495;-78
2023/05/02 06:26:04;;;;;;;8.68;6.97;;;;;;;;;;5081885;28;20035;-79
2023/05/02 06:28:30;;;;;;;13.30;8.60;;;;;;;;;;5089211;28;20023;-78
2023/05/02 06:31:02;;;;;;;15.00;8.55;;;;;;;;;;5084438;28;20078;-80
2023/05/02 06:33:28;;;;;;;22.73;10.82;;;;;;;;;;5085751;28;20056;-81
2023/05/02 06:35:54;;;;;;;13.23;8.85;;;;;;;;;;5074434;28;20403;-82
2023/05/02 06:38:20;;;;;;;15.57;9.18;;;;;;;;;;5073730;28;20016;-77
2023/05/02 06:40:46;;;;;;;14.15;9.45;;;;;;;;;;5081592;28;20467;-79
2023/05/02 06:43:13;;;;;;;17.33;8.52;;;;;;;;;;5088735;28;20113;-80
2023/05/02 06:45:39;;;;;;;12.57;8.13;;;;;;;;;;5070545;28;20040;-81
2023/05/02 06:48:05;;;;;;;11.90;8.00;;;;;;;;;;5069448;28;20051;-80
2023/05/02 06:50:31;;;;;;;15.30;8.80;;;;;;;;;;5078790;28;20046;-80
2023/05/02 06:52:57;;;;;;;12.27;8.50;;;;;;;;;;5076141;28;20028;-78
2023/05/02 06:55:22;;;;;;;13.52;8.18;;;;;;;;;;5076079;28;20121;-78
2023/05/02 06:57:49;;;;;;;16.70;9.20;;;;;;;;;;5077181;28;20490;-80
2023/05/02 07:00:19;;;;;;;10.43;8.05;;;;;;;;;;5079612;28;20032;-79
2023/05/02 07:02:46;;;;;;;13.32;8.88;;;;;;;;;;5080024;28;20037;-78
2023/05/02 07:05:26;;;;;;;9.85;7.38;;;;;;;;;;5084946;28;20040;-81
2023/05/02 07:07:52;;;;;;;17.90;8.55;;;;;;;;;;5076733;28;20031;-80
2023/05/02 07:10:17;;;;;;;16.35;9.00;;;;;;;;;;5081219;28;20028;-79
2023/05/02 07:12:43;;;;;;;11.80;8.43;;;;;;;;;;5080903;28;20143;-78
2023/05/02 07:15:09;;;;;;;18.33;8.02;;;;;;;;;;5078188;28;20070;-76
2023/05/02 07:17:46;;;;;;;15.07;8.10;;;;;;;;;;5072404;28;20031;-78
2023/05/02 07:20:12;;;;;;;12.80;7.72;;;;;;;;;;5080105;28;20031;-83
2023/05/02 07:22:37;;;;;;;12.50;8.18;;;;;;;;;;5081879;28;20037;-81
2023/05/02 07:25:03;;;;;;;19.50;9.98;;;;;;;;;;5081811;28;20035;-81
2023/05/02 07:27:32;;;;;;;15.32;9.10;;;;;;;;;;5081043;28;20050;-79
2023/05/02 07:29:57;;;;;;;19.17;9.00;;;;;;;;;;5074762;28;20060;-81
2023/05/02 07:32:32;;;;;;;13.68;7.90;;;;;;;;;;5071760;28;20526;-80
2023/05/02 07:34:57;;;;;;;10.95;7.85;;;;;;;;;;5082203;28;20028;-79
2023/05/02 07:37:23;;;;;;;12.15;7.55;;;;;;;;;;5076467;27;20123;-82
2023/05/02 07:39:51;;;;;;;14.48;7.68;;;;;;;;;;5085266;28;20059;-82
2023/05/02 07:42:19;;;;;;;11.98;6.97;;;;;;;;;;5088995;28;20036;-80
2023/05/02 07:44:45;;;;;;;12.57;6.85;;;;;;;;;;5079615;28;20185;-79
2023/05/02 07:47:10;;;;;;;12.50;6.60;;;;;;;;;;5084201;28;20581;-81
2023/05/02 07:49:55;;;;;;;13.82;6.47;;;;;;;;;;5088819;28;20027;-83
2023/05/02 07:52:27;;;;;;;12.00;7.97;;;;;;;;;;5096140;28;20118;-78
2023/05/02 07:54:57;;;;;;;8.50;5.82;;;;;;;;;;5088427;28;20025;-83
2023/05/02 07:57:28;;;;;;;14.35;6.97;;;;;;;;;;5089574;28;20482;-81
2023/05/02 07:59:59;;;;;;;15.45;7.55;;;;;;;;;;5083064;28;20032;-80
2023/05/02 08:02:28;;;;;;;14.40;7.30;;;;;;;;;;5100107;27;20238;-80
2023/05/02 08:04:54;;;;;;;13.82;8.20;;;;;;;;;;5085592;28;20134;-83
2023/05/02 08:07:41;;;;;;;;;;;;;;;;;;;;;
2023/05/02 08:10:13;;;;;;;12.40;7.93;;;;;;;;;;5092150;28;20024;-79
2023/05/02 08:12:48;;;;;;;13.13;8.10;;;;;;;;;;5089542;28;20026;-79
2023/05/02 08:15:17;;;;;;;10.93;7.63;;;;;;;;;;5098245;28;20502;-79
2023/05/02 08:17:45;;;;;;;11.23;7.55;;;;;;;;;;5088122;28;20116;-79
2023/05/02 08:20:12;;;;;;;11.20;7.85;;;;;;;;;;5084988;28;20479;-80
2023/05/02 08:22:38;;;;;;;11.98;7.85;;;;;;;;;;5080148;28;20028;-81
2023/05/02 08:25:10;;;;;;;13.50;7.60;;;;;;;;;;5072778;28;20034;-81
2023/05/02 08:27:52;;;;;;;26.90;7.95;;;;;;;;;;5074866;28;20024;-79
2023/05/02 08:30:18;;;;;;;12.00;6.85;;;;;;;;;;5079896;28;20089;-78
2023/05/02 08:32:47;;;;;;;11.52;7.05;;;;;;;;;;5081045;28;20031;-78
2023/05/02 08:35:15;;;;;;;9.88;5.95;;;;;;;;;;5082681;28;20032;-78
2023/05/02 08:37:44;;;;;;;11.85;7.03;;;;;;;;;;5098831;27;20037;-78
2023/05/02 08:40:14;;;;;;;10.32;7.30;;;;;;;;;;5079711;28;20567;-80
2023/05/02 08:42:43;;;;;;;11.98;7.35;;;;;;;;;;5072862;28;20028;-79
2023/05/02 08:45:13;;;;;;;8.63;6.75;;;;;;;;;;5063629;28;21392;-81
2023/05/02 08:48:52;;;;;;;7.95;5.90;;;;;;;;;;5082952;28;20438;-80
2023/05/02 08:51:41;;;;;;;13.00;5.72;;;;;;;;;;5093277;28;20031;-82
2023/05/02 08:55:05;;;;;;;7.13;5.57;;;;;;;;;;5020612;28;20707;-83
2023/05/02 09:05:39;;;;;;;9.73;6.55;;;;;;;;;;4803889;29;20043;-80
2023/05/02 09:08:05;;;;;;;11.90;6.32;;;;;;;;;;4846539;29;20849;-83
2023/05/02 09:10:38;;;;;;;7.97;5.78;;;;;;;;;;4896934;29;20665;-79
2023/05/02 09:13:50;;;;;;;9.43;6.07;;;;;;;;;;4949214;28;20052;-80
2023/05/02 09:16:21;;;;;;;11.55;6.30;;;;;;;;;;5002330;28;20426;-81
2023/05/02 09:18:49;;;;;;;14.23;6.53;;;;;;;;;;5000469;28;20517;-79
2023/05/02 09:21:15;;;;;;;10.10;5.85;;;;;;;;;;5007239;28;20394;-79
2023/05/02 09:23:46;;;;;;;9.30;5.57;;;;;;;;;;5015114;28;20166;-80
2023/05/02 09:26:32;;;;;;;10.32;6.95;;;;;;;;;;5074841;28;20111;-76
2023/05/02 09:29:03;;;;;;;10.18;6.53;;;;;;;;;;5073063;28;20032;-77
2023/05/02 09:31:35;;;;;;;10.87;5.90;;;;;;;;;;5077334;28;20667;-78
2023/05/02 09:34:12;;;;;;;13.95;8.50;;;;;;;;;;5076674;28;20308;-77
2023/05/02 09:36:46;;;;;;;15.57;6.47;;;;;;;;;;5081104;28;20044;-78
2023/05/02 09:39:20;;;;;;;13.27;6.32;;;;;;;;;;5071945;28;20809;-80
2023/05/02 09:41:47;;;;;;;13.30;6.40;;;;;;;;;;5080064;28;20080;-80
2023/05/02 09:44:35;;;;;;;10.02;5.97;;;;;;;;;;5079757;28;20020;-80
2023/05/02 09:47:01;;;;;;;12.18;5.95;;;;;;;;;;5068076;28;20055;-79
2023/05/02 09:49:40;;;;;;;11.75;6.10;;;;;;;;;;5093017;28;20046;-81
2023/05/02 09:52:22;;;;;;;11.65;6.78;;;;;;;;;;5084769;28;20031;-81
2023/05/02 09:54:52;;;;;;;;;;;;;;;;;;5082440;28;20162;-82
2023/05/02 09:57:20;;;;;;;12.93;6.35;;;;;;;;;;5078071;28;19977;-80
2023/05/02 09:59:58;;;;;;;10.88;6.07;;;;;;;;;;5075237;28;20043;-83
2023/05/02 10:03:04;;;;;;;11.35;5.28;;;;;;;;;;5082798;28;20035;-84
2023/05/02 10:05:30;;;;;;;8.93;5.47;;;;;;;;;;5092324;28;20200;-84
2023/05/02 10:08:02;;;;;;;7.40;5.80;;;;;;;;;;5091760;28;20162;-83
2023/05/02 10:10:34;;;;;;;8.35;6.05;;;;;;;;;;5087795;28;20080;-84
2023/05/02 10:13:04;;;;;;;11.32;6.53;;;;;;;;;;5084404;28;20036;-79
2023/05/02 10:15:41;;;;;;;10.50;6.53;;;;;;;;;;5083379;28;20024;-82
2023/05/02 10:18:14;;;;;;;8.05;5.45;;;;;;;;;;5080038;28;20028;-80
2023/05/02 10:20:55;;;;;;;17.75;6.43;;;;;;;;;;5088506;28;20028;-78
2023/05/02 10:23:24;;;;;;;8.73;6.10;;;;;;;;;;5075233;28;20028;-79
2023/05/02 10:25:50;;;;;;;10.38;5.85;;;;;;;;;;5066637;28;20623;-78
2023/05/02 10:28:16;;;;;;;12.10;6.28;;;;;;;;;;5074450;28;20042;-80
2023/05/02 10:30:50;;;;;;;8.57;5.68;;;;;;;;;;5080346;28;20023;-82
2023/05/02 10:33:22;;;;;;;7.82;5.80;;;;;;;;;;5069148;28;20036;-80
2023/05/02 10:35:49;;;;;;;8.35;6.57;;;;;;;;;;5076898;28;20032;-79
2023/05/02 10:38:27;;;;;;;9.25;6.00;;;;;;;;;;5076744;28;20051;-80
2023/05/02 10:40:56;;;;;;;9.07;7.43;;;;;;;;;;5086773;28;20031;-80
2023/05/02 10:43:27;;;;;;;14.02;6.22;;;;;;;;;;5083774;28;20033;-79
2023/05/02 10:45:54;;;;;;;14.15;7.05;;;;;;;;;;5078026;28;20028;-78
2023/05/02 10:48:27;;;;;;;9.20;5.72;;;;;;;;;;5088599;28;20035;-79
2023/05/02 10:51:02;;;;;;;12.63;7.45;;;;;;;;;;5074237;28;20042;-79
2023/05/02 10:53:42;;;;;;;10.20;7.25;;;;;;;;;;5082814;28;20017;-76
2023/05/02 10:56:17;;;;;;;21.13;6.60;;;;;;;;;;5085015;28;20454;-77
2023/05/02 10:58:56;;;;;;;9.35;5.93;;;;;;;;;;5083209;28;20119;-79
2023/05/02 11:01:42;;;;;;;8.55;5.53;;;;;;;;;;5092379;28;20028;-79
2023/05/02 11:04:11;;;;;;;9.38;5.93;;;;;;;;;;5085423;28;20062;-79
2023/05/02 11:07:03;;;;;;;10.32;5.97;;;;;;;;;;5083334;28;20040;-81
2023/05/02 11:09:33;;;;;;;9.35;5.80;;;;;;;;;;5081913;28;20039;-80
2023/05/02 11:12:03;;;;;;;26.55;15.25;;;;;;;;;;5091511;28;20032;-79
2023/05/02 11:14:38;;;;;;;9.13;5.88;;;;;;;;;;5084318;28;20578;-78
2023/05/02 11:17:09;;;;;;;7.45;6.30;;;;;;;;;;5080248;28;20063;-85
2023/05/02 11:19:38;;;;;;;8.88;6.22;;;;;;;;;;5090797;28;20068;-80
2023/05/02 11:22:26;;;;;;;7.53;5.97;;;;;;;;;;5090227;28;20131;-77
2023/05/02 11:24:53;;;;;;;9.23;6.22;;;;;;;;;;5086955;28;20111;-79
2023/05/02 11:27:42;;;;;;;8.75;5.90;;;;;;;;;;5082923;28;20031;-80
2023/05/02 11:30:09;;;;;;;8.90;6.13;;;;;;;;;;5094380;28;20019;-80
2023/05/02 11:32:44;;;;;;;13.50;7.03;;;;;;;;;;5085947;28;20032;-79
2023/05/02 11:35:19;;;;;;;8.23;6.45;;;;;;;;;;5076743;28;20031;-79
2023/05/02 11:38:09;;;;;;;10.05;7.43;;;;;;;;;;5085550;28;20024;-79
2023/05/02 11:40:35;;;;;;;10.95;6.30;;;;;;;;;;5081888;28;20024;-81
2023/05/02 11:43:24;;;;;;;8.48;6.57;;;;;;;;;;5082871;28;20024;-81
2023/05/02 11:45:58;;;;;;;12.90;6.25;;;;;;;;;;5097215;28;20151;-82
2023/05/02 11:48:28;;;;;;;8.50;6.28;;;;;;;;;;5091188;28;20015;-79
2023/05/02 11:51:05;;;;;;;9.57;6.10;;;;;;;;;;5081266;28;20036;-82
2023/05/02 11:53:30;;;;;;;9.63;5.78;;;;;;;;;;5090500;28;20027;-80
2023/05/02 11:56:04;;;;;;;6.28;5.22;;;;;;;;;;5095558;28;20038;-82
2023/05/02 11:58:32;;;;;;;9.52;5.50;;;;;;;;;;5089657;28;20157;-79
2023/05/02 12:00:58;;;;;;;7.32;5.22;;;;;;;;;;5070816;28;20092;-81
2023/05/02 12:03:32;;;;;;;6.88;4.63;;;;;;;;;;5085768;28;22015;-84
2023/05/02 12:06:12;;;;;;;9.57;4.82;;;;;;;;;;5084326;28;20024;-81
2023/05/02 12:08:41;;;;;;;8.80;5.32;;;;;;;;;;5091121;28;20092;-80
2023/05/02 12:11:08;;;;;;;8.63;5.10;;;;;;;;;;5084450;28;20026;-79
2023/05/02 12:13:34;;;;;;;8.57;4.22;;;;;;;;;;5073934;28;20042;-78
2023/05/02 12:16:00;;;;;;;8.75;4.90;;;;;;;;;;5080529;28;20374;-79
2023/05/02 12:18:26;;;;;;;6.82;3.83;;;;;;;;;;5076909;28;20139;-80
2023/05/02 12:20:53;;;;;;;11.48;4.65;;;;;;;;;;5084400;28;20320;-78
2023/05/02 12:23:21;;;;;;;7.72;4.55;;;;;;;;;;5100158;28;20042;-79
2023/05/02 12:25:55;;;;;;;8.07;4.90;;;;;;;;;;5086545;28;20028;-81
2023/05/02 12:28:22;;;;;;;9.07;4.50;;;;;;;;;;5082526;28;20031;-80
2023/05/02 12:31:00;;;;;;;8.85;4.13;;;;;;;;;;5079461;28;20040;-78
2023/05/02 12:33:28;;;;;;;6.75;4.05;;;;;;;;;;5094156;28;20038;-81
2023/05/02 12:36:05;;;;;;;6.93;4.32;;;;;;;;;;5085694;28;20456;-78
2023/05/02 12:38:31;;;;;;;9.68;4.32;;;;;;;;;;5083044;28;20039;-80
2023/05/02 12:40:57;;;;;;;7.80;3.83;;;;;;;;;;5085026;28;20051;-80
2023/05/02 12:43:45;;;;;;;7.95;4.13;;;;;;;;;;5091270;28;20024;-78
2023/05/02 12:46:10;;;;;;;14.52;4.22;;;;;;;;;;5087808;28;20055;-81
2023/05/02 12:48:39;;;;;;;7.30;3.85;;;;;;;;;;5092234;28;20024;-79
2023/05/02 12:51:19;;;;;;;9.27;4.32;;;;;;;;;;5090364;28;20020;-83
2023/05/02 12:53:46;;;;;;;6.22;3.85;;;;;;;;;;5089581;28;20785;-82
2023/05/02 12:56:14;;;;;;;7.43;4.13;;;;;;;;;;5093853;27;20023;-84
2023/05/02 12:58:51;;;;;;;6.47;3.85;;;;;;;;;;5091292;28;20032;-80
2023/05/02 13:01:19;;;;;;;5.72;4.22;;;;;;;;;;5098414;28;20040;-81
2023/05/02 13:03:45;;;;;;;6.20;3.90;;;;;;;;;;5091174;28;20408;-79
2023/05/02 13:06:17;;;;;;;5.45;4.43;;;;;;;;;;5083734;28;20225;-80
2023/05/02 13:08:43;;;;;;;6.38;4.80;;;;;;;;;;5096097;28;20090;-82
2023/05/02 13:11:08;;;;;;;10.60;4.53;;;;;;;;;;5094359;28;20479;-80
2023/05/02 13:13:34;;;;;;;5.78;4.40;;;;;;;;;;5082390;28;20062;-81
2023/05/02 13:16:00;;;;;;;7.25;4.43;;;;;;;;;;5071138;28;20025;-81
2023/05/02 13:18:31;;;;;;;12.73;4.70;;;;;;;;;;5088805;28;20070;-85
2023/05/02 13:20:57;;;;;;;7.20;4.13;;;;;;;;;;5088372;28;20028;-78
2023/05/02 13:23:22;;;;;;;5.70;3.92;;;;;;;;;;5098951;28;20031;-81
2023/05/02 13:25:51;;;;;;;13.00;5.63;;;;;;;;;;5071090;28;20028;-79
2023/05/02 13:28:17;;;;;;;9.60;4.50;;;;;;;;;;5087639;28;20086;-81
2023/05/02 13:30:43;;;;;;;8.38;4.18;;;;;;;;;;5078952;28;20490;-81
2023/05/02 13:33:09;;;;;;;11.13;4.32;;;;;;;;;;5086763;28;20024;-81
2023/05/02 13:35:34;;;;;;;8.00;4.40;;;;;;;;;;5077842;28;20074;-77
2023/05/02 13:38:00;;;;;;;7.18;3.88;;;;;;;;;;5090914;28;20068;-81
2023/05/02 13:40:26;;;;;;;6.57;4.15;;;;;;;;;;5079262;28;20019;-81
2023/05/02 13:42:52;;;;;;;10.52;4.43;;;;;;;;;;5087437;28;20046;-81
2023/05/02 13:45:18;;;;;;;5.20;4.25;;;;;;;;;;5077324;28;20036;-80
2023/05/02 13:47:43;;;;;;;6.63;4.18;;;;;;;;;;5097714;28;20201;-79
2023/05/02 13:50:09;;;;;;;10.32;4.63;;;;;;;;;;5083236;28;20460;-82
2023/05/02 13:52:35;;;;;;;7.50;4.32;;;;;;;;;;5085273;28;20147;-80
2023/05/02 13:55:00;;;;;;;6.40;4.00;;;;;;;;;;5086446;28;20215;-79
2023/05/02 13:57:26;;;;;;;6.22;4.20;;;;;;;;;;5087181;28;20032;-80
2023/05/02 13:59:52;;;;;;;9.70;4.50;;;;;;;;;;5084850;28;20067;-80
2023/05/02 14:02:17;;;;;;;7.53;4.80;;;;;;;;;;5079730;28;20024;-79
2023/05/02 14:04:43;;;;;;;11.93;4.70;;;;;;;;;;5083521;28;20034;-80
2023/05/02 14:07:08;;;;;;;11.02;4.70;;;;;;;;;;5096326;28;20019;-79
2023/05/02 14:09:34;;;;;;;7.47;4.90;;;;;;;;;;5099573;28;20415;-82
2023/05/02 14:12:01;;;;;;;7.13;4.57;;;;;;;;;;5094112;28;20023;-81
2023/05/02 14:14:26;;;;;;;7.47;4.75;;;;;;;;;;5094669;28;20177;-80
2023/05/02 14:16:52;;;;;;;6.95;4.75;;;;;;;;;;5100172;28;20111;-80
2023/05/02 14:19:17;;;;;;;9.50;5.07;;;;;;;;;;5087489;28;20105;-80
2023/05/02 14:21:43;;;;;;;6.30;5.15;;;;;;;;;;5074001;28;20024;-78
2023/05/02 14:24:11;;;;;;;6.28;4.72;;;;;;;;;;5099593;28;20035;-80
2023/05/02 14:26:36;;;;;;;11.88;4.95;;;;;;;;;;5089426;28;20032;-79
2023/05/02 14:29:06;;;;;;;7.90;5.07;;;;;;;;;;5076011;28;20086;-80
2023/05/02 14:31:31;;;;;;;5.88;4.45;;;;;;;;;;5077845;28;20722;-82
2023/05/02 14:33:57;;;;;;;8.02;4.65;;;;;;;;;;5090957;28;20127;-79
2023/05/02 14:36:22;;;;;;;6.07;4.40;;;;;;;;;;5092675;28;20039;-78
2023/05/02 14:38:51;;;;;;;10.30;5.22;;;;;;;;;;5083602;28;20070;-80
2023/05/02 14:41:16;;;;;;;6.88;4.65;;;;;;;;;;5080859;28;20536;-81
2023/05/02 14:43:42;;;;;;;8.43;4.70;;;;;;;;;;5086743;28;20040;-80
2023/05/02 14:46:08;;;;;;;7.43;4.70;;;;;;;;;;5072902;28;20106;-79
2023/05/02 14:48:33;;;;;;;6.68;4.43;;;;;;;;;;5084314;28;20023;-80
2023/05/02 14:51:02;;;;;;;8.70;4.40;;;;;;;;;;5082099;28;20116;-78
2023/05/02 14:53:28;;;;;;;8.23;4.95;;;;;;;;;;5084964;28;20391;-82
2023/05/02 14:55:53;;;;;;;6.43;4.45;;;;;;;;;;5072995;28;20024;-78
2023/05/02 14:58:19;;;;;;;6.30;4.30;;;;;;;;;;5076853;28;20415;-79
2023/05/02 15:00:45;;;;;;;5.70;4.75;;;;;;;;;;5081673;28;20078;-79